createdAt,value
2022-11-24T00:00:30.774Z,13.60
2022-11-24T00:05:53.704Z,16.00
2022-11-24T00:10:56.695Z,12.00
2022-11-24T00:16:11.914Z,9.40
2022-11-24T00:21:16.790Z,13.00
2022-11-24T00:26:34.845Z,23.40
2022-11-24T00:31:40.297Z,16.20
2022-11-24T00:36:43.630Z,21.50
2022-11-24T00:41:46.615Z,17.40
2022-11-24T00:46:50.117Z,16.00
2022-11-24T00:51:53.316Z,24.00
2022-11-24T00:56:56.371Z,12.90
2022-11-24T01:01:59.368Z,11.20
2022-11-24T01:07:02.359Z,13.50
2022-11-24T01:12:05.619Z,20.40
2022-11-24T01:17:08.640Z,18.00
2022-11-24T01:22:11.630Z,20.80
2022-11-24T01:27:14.683Z,9.90
2022-11-24T01:32:17.638Z,21.50
2022-11-24T01:37:20.709Z,13.80
2022-11-24T01:42:23.732Z,15.40
2022-11-24T01:47:29.685Z,12.70
2022-11-24T01:52:42.154Z,17.10
2022-11-24T01:57:51.929Z,13.90
2022-11-24T02:02:55.018Z,17.20
2022-11-24T02:08:01.401Z,13.30
2022-11-24T02:13:05.557Z,12.70
2022-11-24T02:18:08.791Z,12.90
2022-11-24T02:23:26.485Z,11.70
2022-11-24T02:28:31.071Z,14.00
2022-11-24T02:33:35.219Z,18.90
2022-11-24T02:38:38.350Z,14.70
2022-11-24T02:43:49.316Z,15.10
2022-11-24T02:48:52.385Z,15.50
2022-11-24T02:53:55.356Z,16.70
2022-11-24T02:58:58.583Z,26.60
2022-11-24T03:04:01.570Z,11.60
2022-11-24T03:09:05.714Z,22.00
2022-11-24T03:14:09.073Z,21.20
2022-11-24T03:19:12.187Z,18.70
2022-11-24T03:24:15.218Z,14.90
2022-11-24T03:29:18.328Z,25.10
2022-11-24T03:34:21.374Z,23.50
2022-11-24T03:39:24.417Z,20.10
2022-11-24T03:44:27.430Z,17.20
2022-11-24T03:49:30.707Z,29.00
2022-11-24T03:54:34.047Z,20.50
2022-11-24T03:59:37.183Z,15.00
2022-11-24T04:04:40.566Z,12.30
2022-11-24T04:09:43.569Z,20.20
2022-11-24T04:14:46.584Z,13.50
2022-11-24T04:19:49.615Z,13.00
2022-11-24T04:24:52.631Z,25.20
2022-11-24T04:29:55.701Z,20.40
2022-11-24T04:34:58.669Z,17.60
2022-11-24T04:40:01.687Z,21.20
2022-11-24T04:45:06.073Z,15.40
2022-11-24T04:50:09.525Z,16.30
2022-11-24T04:55:12.571Z,13.30
2022-11-24T05:00:15.931Z,10.20
2022-11-24T05:05:19.215Z,17.40
2022-11-24T05:10:37.459Z,17.70
2022-11-24T05:15:41.969Z,15.20
2022-11-24T05:20:45.198Z,16.60
2022-11-24T05:25:48.177Z,12.50
2022-11-24T05:30:51.125Z,10.60
2022-11-24T05:35:55.341Z,11.80
2022-11-24T05:41:03.199Z,13.70
2022-11-24T05:46:06.250Z,9.30
2022-11-24T05:51:09.659Z,11.30
2022-11-24T05:56:12.500Z,13.20
2022-11-24T06:01:15.619Z,16.40
2022-11-24T06:06:18.440Z,10.90
2022-11-24T06:11:21.684Z,11.80
2022-11-24T06:16:24.590Z,13.30
2022-11-24T06:21:28.292Z,15.30
2022-11-24T06:26:31.102Z,12.90
2022-11-24T06:31:33.989Z,10.00
2022-11-24T06:36:37.544Z,17.80
2022-11-24T06:41:40.713Z,12.40
2022-11-24T06:46:43.465Z,9.80
2022-11-24T06:51:46.272Z,19.30
2022-11-24T06:56:49.086Z,12.80
2022-11-24T07:01:52.109Z,15.20
2022-11-24T07:06:54.873Z,11.10
2022-11-24T07:11:58.285Z,8.10
2022-11-24T07:17:02.634Z,11.40
2022-11-24T07:22:05.464Z,17.10
2022-11-24T07:27:08.218Z,10.60
2022-11-24T07:32:11.037Z,14.20
2022-11-24T07:37:13.860Z,11.20
2022-11-24T07:42:16.641Z,11.20
2022-11-24T07:47:19.360Z,16.40
2022-11-24T07:52:22.155Z,12.70
2022-11-24T07:57:24.901Z,18.60
2022-11-24T08:02:27.688Z,15.10
2022-11-24T08:07:30.630Z,15.00
2022-11-24T08:12:33.697Z,15.50
2022-11-24T08:17:36.770Z,14.30
2022-11-24T08:22:39.575Z,15.40
2022-11-24T08:27:42.371Z,17.10
2022-11-24T08:32:45.150Z,20.10
2022-11-24T08:37:47.881Z,17.30
2022-11-24T08:42:50.664Z,13.30
2022-11-24T08:47:54.736Z,15.50
2022-11-24T08:52:57.526Z,18.30
2022-11-24T08:58:00.307Z,7.90
2022-11-24T09:03:03.092Z,15.70
2022-11-24T09:08:06.246Z,13.10
2022-11-24T09:13:09.634Z,18.90
2022-11-24T09:18:12.457Z,16.10
2022-11-24T09:23:15.145Z,14.80
2022-11-24T09:28:17.840Z,19.10
2022-11-24T09:33:20.653Z,16.10
2022-11-24T09:38:23.617Z,21.30
2022-11-24T09:43:52.827Z,23.00
2022-11-24T09:48:58.632Z,19.20
2022-11-24T09:54:09.469Z,16.50
2022-11-24T09:59:18.361Z,20.20
2022-11-24T10:04:44.793Z,16.60
2022-11-24T10:09:56.485Z,13.70
2022-11-24T10:15:06.269Z,9.00
2022-11-24T10:20:41.505Z,15.70
2022-11-24T10:25:56.576Z,17.60
2022-11-24T10:31:28.880Z,14.40
2022-11-24T10:36:38.198Z,23.70
2022-11-24T10:41:52.735Z,26.20
2022-11-24T10:46:55.607Z,19.90
2022-11-24T10:52:02.192Z,24.20
2022-11-24T10:57:05.088Z,15.80
2022-11-24T11:02:29.181Z,22.80
2022-11-24T11:07:32.146Z,25.80
2022-11-24T11:12:44.075Z,26.60
2022-11-24T11:17:50.596Z,16.20
2022-11-24T11:22:55.960Z,20.70
2022-11-24T11:28:22.114Z,18.00
2022-11-24T11:38:54.086Z,10.90
2022-11-24T11:44:26.146Z,26.50
2022-11-24T11:49:28.975Z,25.90
2022-11-24T11:55:01.107Z,22.00
2022-11-24T12:00:09.991Z,27.90
2022-11-24T12:05:22.591Z,23.00
2022-11-24T12:10:25.419Z,14.20
2022-11-24T12:15:36.692Z,17.60
2022-11-24T12:20:39.511Z,20.50
2022-11-24T12:25:52.671Z,15.30
2022-11-24T12:31:07.298Z,25.00
2022-11-24T12:36:28.120Z,28.70
2022-11-24T12:41:47.792Z,20.10
2022-11-24T12:47:02.830Z,39.90
2022-11-24T12:52:46.785Z,24.00
2022-11-24T12:58:09.456Z,21.90
2022-11-24T13:03:53.747Z,26.40
2022-11-24T13:08:56.981Z,38.10
2022-11-24T13:14:03.030Z,23.70
2022-11-24T13:19:26.424Z,20.60
2022-11-24T13:24:32.137Z,19.80
2022-11-24T13:29:36.899Z,31.80
2022-11-24T13:34:40.064Z,22.10
2022-11-24T13:40:03.288Z,33.90
2022-11-24T13:45:46.878Z,23.40
2022-11-24T13:50:49.889Z,19.90
2022-11-24T13:55:59.352Z,20.30
2022-11-24T14:01:24.347Z,24.00
2022-11-24T14:06:51.078Z,17.80
2022-11-24T14:12:06.314Z,23.10
2022-11-24T14:17:18.290Z,31.60
2022-11-24T14:22:23.130Z,16.00
2022-11-24T14:27:32.434Z,36.40
2022-11-24T14:32:35.916Z,35.80
2022-11-24T14:37:38.722Z,31.90
2022-11-24T14:42:41.500Z,30.00
2022-11-24T14:47:45.315Z,17.90
2022-11-24T14:52:56.562Z,22.90
2022-11-24T14:58:00.042Z,14.50
2022-11-24T15:03:02.843Z,25.30
2022-11-24T15:08:05.771Z,28.70
2022-11-24T15:13:23.595Z,35.20
2022-11-24T15:18:31.400Z,34.90
2022-11-24T15:23:35.538Z,28.50
2022-11-24T15:28:41.403Z,20.60
2022-11-24T15:33:44.758Z,33.70
2022-11-24T15:38:52.464Z,37.20
2022-11-24T15:44:01.312Z,36.30
2022-11-24T15:49:04.755Z,33.90
2022-11-24T15:54:13.748Z,33.70
2022-11-24T15:59:20.747Z,32.20
2022-11-24T16:04:24.139Z,25.00
2022-11-24T16:09:26.877Z,35.80
2022-11-24T16:14:30.261Z,46.20
2022-11-24T16:19:36.180Z,38.00
2022-11-24T16:24:43.417Z,20.90
2022-11-24T16:29:46.419Z,24.70
2022-11-24T16:34:49.143Z,30.20
2022-11-24T16:39:51.871Z,32.80
2022-11-24T16:44:55.093Z,43.70
2022-11-24T16:49:57.936Z,49.70
2022-11-24T16:55:01.715Z,38.30
2022-11-24T17:00:06.090Z,34.00
2022-11-24T17:05:09.705Z,20.50
2022-11-24T17:10:12.686Z,26.00
2022-11-24T17:15:32.736Z,37.60
2022-11-24T17:20:36.274Z,29.40
2022-11-24T17:25:39.490Z,27.10
2022-11-24T17:30:42.723Z,31.70
2022-11-24T17:35:45.568Z,23.70
2022-11-24T17:40:48.379Z,44.40
2022-11-24T17:46:00.530Z,44.40
2022-11-24T17:51:10.130Z,35.20
2022-11-24T17:56:14.905Z,22.90
2022-11-24T18:01:17.804Z,23.70
2022-11-24T18:06:25.048Z,45.20
2022-11-24T18:11:31.707Z,42.10
2022-11-24T18:16:35.352Z,33.10
2022-11-24T18:21:40.576Z,28.60
2022-11-24T18:26:43.807Z,27.40
2022-11-24T18:31:46.561Z,32.40
2022-11-24T18:36:52.120Z,41.60
2022-11-24T18:41:54.917Z,43.50
2022-11-24T18:46:57.824Z,44.10
2022-11-24T18:52:01.109Z,42.30
2022-11-24T18:57:04.055Z,39.90
2022-11-24T19:02:06.828Z,28.70
2022-11-24T19:07:09.628Z,38.20
2022-11-24T19:12:12.418Z,61.50
2022-11-24T19:17:15.116Z,62.60
2022-11-24T19:22:17.937Z,35.30
2022-11-24T19:27:21.900Z,40.80
2022-11-24T19:32:24.636Z,39.40
2022-11-24T19:37:30.403Z,38.60
2022-11-24T19:42:33.401Z,49.90
2022-11-24T19:47:36.117Z,56.10
2022-11-24T19:52:38.821Z,58.30
2022-11-24T19:57:42.005Z,49.70
2022-11-24T20:02:44.874Z,47.60
2022-11-24T20:07:47.781Z,33.90
2022-11-24T20:12:50.534Z,45.30
2022-11-24T20:17:53.269Z,31.50
2022-11-24T20:22:55.973Z,48.30
2022-11-24T20:27:58.748Z,53.00
2022-11-24T20:33:01.451Z,48.40
2022-11-24T20:43:24.624Z,27.80
2022-11-24T20:48:27.347Z,36.00
2022-11-24T20:53:30.135Z,50.50
2022-11-24T20:58:34.789Z,45.20
2022-11-24T21:03:42.977Z,32.80
2022-11-24T21:08:46.372Z,38.30
2022-11-24T21:13:50.361Z,30.30
2022-11-24T21:18:56.289Z,27.30
2022-11-24T21:23:59.041Z,28.80
2022-11-24T21:29:01.800Z,39.60
2022-11-24T21:34:06.128Z,43.80
2022-11-24T21:39:12.790Z,29.30
2022-11-24T21:44:15.772Z,22.50
2022-11-24T21:49:18.593Z,20.20
2022-11-24T21:54:22.269Z,27.40
2022-11-24T21:59:25.374Z,32.30
2022-11-24T22:04:28.088Z,33.20
2022-11-24T22:09:30.808Z,29.10
2022-11-24T22:14:37.541Z,26.90
2022-11-24T22:19:42.997Z,29.20
2022-11-24T22:24:45.741Z,22.60
2022-11-24T22:29:53.874Z,28.10
2022-11-24T22:34:56.991Z,35.20
2022-11-24T22:39:59.744Z,31.00
2022-11-24T22:45:02.928Z,27.40
2022-11-24T22:50:06.493Z,30.90
2022-11-24T22:55:09.232Z,22.60
2022-11-24T23:00:12.924Z,27.10
2022-11-24T23:05:20.560Z,28.00
2022-11-24T23:10:23.722Z,41.00
2022-11-24T23:15:26.513Z,37.40
2022-11-24T23:20:29.288Z,28.00
2022-11-24T23:25:34.094Z,21.60
2022-11-24T23:30:36.904Z,17.60
2022-11-24T23:35:39.779Z,25.70
2022-11-24T23:40:42.524Z,24.50
2022-11-24T23:45:45.365Z,24.40
2022-11-24T23:50:48.140Z,23.30
2022-11-24T23:55:56.987Z,28.90
